Time;durP1;ratioP1;P1;durP2;ratioP2;P2;SDS_P1;SDS_P2;PMS_P1;PMS_P2;Temp;Humidity;BMP_temperature;BMP_pressure;BME280_temperature;BME280_humidity;BME280_pressure;Samples;Min_cycle;Max_cycle;Signal;HPM_P1;HPM_P2
2021/10/27 00:03:29;;;;;;;2.47;2.08;;;17.50;70.60;;;;;;10359165;28;20466;-56
2021/10/27 00:08:31;;;;;;;3.55;2.10;;;17.50;70.60;;;;;;10373429;28;20361;-57
2021/10/27 00:13:31;;;;;;;3.35;2.15;;;17.50;70.60;;;;;;10373867;28;20030;-57
2021/10/27 00:18:32;;;;;;;2.80;2.10;;;17.50;70.50;;;;;;10357067;28;20061;-56
2021/10/27 00:23:33;;;;;;;2.25;1.60;;;17.50;70.50;;;;;;10331455;28;20082;-57
2021/10/27 00:28:34;;;;;;;2.67;2.00;;;17.50;70.50;;;;;;10352365;28;20111;-56
2021/10/27 00:33:36;;;;;;;4.18;2.22;;;17.50;70.50;;;;;;10332199;28;20692;-57
2021/10/27 00:38:37;;;;;;;2.78;2.10;;;17.50;70.60;;;;;;10331748;28;20026;-57
2021/10/27 00:43:38;;;;;;;3.47;2.20;;;17.50;70.50;;;;;;10331594;28;20510;-56
2021/10/27 00:48:39;;;;;;;2.58;1.67;;;17.50;70.50;;;;;;10332002;28;20031;-56
2021/10/27 00:53:40;;;;;;;3.83;2.50;;;17.50;70.60;;;;;;10331625;28;20069;-56
2021/10/27 00:58:41;;;;;;;4.15;2.70;;;17.50;70.60;;;;;;10331241;28;20220;-57
2021/10/27 01:03:42;;;;;;;2.83;2.03;;;17.50;70.60;;;;;;10358399;28;20025;-57
2021/10/27 01:08:42;;;;;;;2.80;1.90;;;17.50;70.60;;;;;;10371861;28;20091;-56
2021/10/27 01:13:43;;;;;;;3.38;1.90;;;17.50;70.50;;;;;;10371433;28;20038;-57
2021/10/27 01:18:44;;;;;;;2.65;1.77;;;17.60;70.40;;;;;;10335357;28;20066;-56
2021/10/27 01:23:45;;;;;;;3.10;2.00;;;17.60;70.20;;;;;;10330501;28;20030;-56
2021/10/27 01:28:45;;;;;;;2.03;1.45;;;17.60;70.20;;;;;;10350087;28;20101;-55
2021/10/27 01:33:46;;;;;;;3.80;2.13;;;17.60;70.20;;;;;;10330144;28;20064;-56
2021/10/27 01:38:49;;;;;;;2.30;1.90;;;17.60;70.30;;;;;;10330100;28;20027;-56
2021/10/27 01:43:56;;;;;;;2.60;2.00;;;17.60;70.30;;;;;;10329759;28;20049;-57
2021/10/27 01:48:58;;;;;;;3.22;1.90;;;17.60;70.40;;;;;;10330246;28;20061;-57
2021/10/27 01:54:00;;;;;;;2.28;1.95;;;17.60;70.30;;;;;;10328464;28;20049;-56
2021/10/27 01:59:00;;;;;;;2.50;1.90;;;17.60;70.40;;;;;;10329621;28;20023;-57
2021/10/27 02:04:01;;;;;;;2.33;1.63;;;17.60;70.40;;;;;;10358638;28;20390;-57
2021/10/27 02:09:02;;;;;;;2.47;1.88;;;17.60;70.40;;;;;;10370427;28;20070;-56
2021/10/27 02:14:03;;;;;;;3.28;2.10;;;17.60;70.40;;;;;;10370419;28;20033;-57
2021/10/27 02:19:08;;;;;;;2.95;1.92;;;17.60;70.50;;;;;;10349491;28;20033;-56
2021/10/27 02:24:09;;;;;;;3.08;1.98;;;17.50;70.50;;;;;;10332629;28;20056;-57
2021/10/27 02:29:10;;;;;;;2.17;1.60;;;17.50;70.50;;;;;;10346281;28;20113;-57
2021/10/27 02:34:10;;;;;;;3.60;2.10;;;17.50;70.50;;;;;;10329049;28;20113;-57
2021/10/27 02:39:11;;;;;;;2.95;1.83;;;17.50;70.50;;;;;;10329426;28;20030;-56
2021/10/27 02:44:13;;;;;;;2.35;1.75;;;17.50;70.60;;;;;;10329668;28;20126;-56
2021/10/27 02:49:13;;;;;;;1.95;1.45;;;17.50;70.60;;;;;;10336224;28;20444;-55
2021/10/27 02:54:14;;;;;;;2.60;2.05;;;17.50;70.60;;;;;;10336260;28;20061;-57
2021/10/27 02:59:14;;;;;;;1.67;1.52;;;17.50;70.60;;;;;;10335865;28;20109;-56
2021/10/27 03:04:15;;;;;;;2.17;1.70;;;17.50;70.60;;;;;;10367485;28;20108;-57
2021/10/27 03:09:16;;;;;;;2.15;1.77;;;17.50;70.70;;;;;;10375909;28;20124;-57
2021/10/27 03:14:17;;;;;;;1.88;1.30;;;17.50;70.70;;;;;;10375506;28;20518;-57
2021/10/27 03:19:17;;;;;;;2.35;1.70;;;17.50;70.60;;;;;;10353735;28;20053;-56
2021/10/27 03:24:18;;;;;;;2.28;1.58;;;17.60;70.30;;;;;;10338762;28;20053;-57
2021/10/27 03:29:19;;;;;;;1.98;1.73;;;17.60;70.20;;;;;;10350629;28;20042;-56
2021/10/27 03:34:20;;;;;;;2.97;2.17;;;17.60;70.30;;;;;;10334300;28;20084;-57
2021/10/27 03:39:20;;;;;;;2.47;1.42;;;17.60;70.30;;;;;;10334011;28;20046;-57
2021/10/27 03:44:21;;;;;;;2.30;1.70;;;17.60;70.40;;;;;;10334019;28;20054;-57
2021/10/27 03:49:22;;;;;;;2.42;2.10;;;17.60;70.50;;;;;;10334688;28;20101;-56
2021/10/27 03:54:22;;;;;;;2.55;1.77;;;17.50;70.50;;;;;;10333635;28;20423;-56
2021/10/27 03:59:23;;;;;;;2.33;1.52;;;17.50;70.60;;;;;;10333780;28;20030;-57
2021/10/27 04:04:24;;;;;;;1.83;1.48;;;17.50;70.50;;;;;;10366283;28;20030;-57
2021/10/27 04:09:24;;;;;;;3.33;1.67;;;17.60;70.60;;;;;;10373488;28;20034;-57
2021/10/27 04:14:25;;;;;;;2.42;1.65;;;17.50;70.60;;;;;;10373476;28;20389;-56
2021/10/27 04:19:26;;;;;;;2.28;1.55;;;17.50;70.60;;;;;;10349391;28;20030;-57
2021/10/27 04:24:27;;;;;;;2.15;1.60;;;17.50;70.60;;;;;;10337585;28;20469;-57
2021/10/27 04:29:28;;;;;;;2.33;1.63;;;17.50;70.60;;;;;;10346375;28;20976;-54
2021/10/27 04:34:28;;;;;;;1.98;1.60;;;17.60;70.40;;;;;;10331992;28;20118;-56
2021/10/27 04:39:29;;;;;;;2.55;1.70;;;17.70;69.90;;;;;;10332549;28;20050;-56
2021/10/27 04:44:30;;;;;;;1.75;1.55;;;18.00;69.30;;;;;;10330388;28;20065;-56
2021/10/27 04:49:31;;;;;;;1.88;1.40;;;18.20;68.50;;;;;;10331620;28;20037;-57
2021/10/27 04:54:31;;;;;;;2.20;1.20;;;18.40;67.70;;;;;;10330370;28;20042;-57
2021/10/27 04:59:44;;;;;;;2.17;1.55;;;18.60;67.40;;;;;;10330924;28;20061;-57
2021/10/27 05:04:47;;;;;;;1.98;1.55;;;18.60;67.20;;;;;;10366976;28;20026;-55
2021/10/27 05:09:47;;;;;;;2.00;1.40;;;18.60;67.20;;;;;;10369458;28;20030;-55
2021/10/27 05:14:48;;;;;;;1.75;1.02;;;18.50;67.50;;;;;;10371235;28;20112;-56
2021/10/27 05:19:49;;;;;;;1.50;1.23;;;18.60;67.60;;;;;;10343189;28;20030;-56
2021/10/27 05:24:50;;;;;;;2.15;1.55;;;18.60;67.60;;;;;;10339010;28;20469;-57
2021/10/27 05:29:50;;;;;;;1.77;1.45;;;18.60;67.50;;;;;;10341901;28;20030;-57
2021/10/27 05:34:51;;;;;;;1.48;0.95;;;18.60;67.50;;;;;;10329050;28;20113;-56
2021/10/27 05:39:52;;;;;;;2.10;1.48;;;18.70;67.30;;;;;;10329830;28;20059;-58
2021/10/27 05:44:53;;;;;;;2.30;1.70;;;18.70;67.40;;;;;;10329782;28;20117;-56
2021/10/27 05:50:07;;;;;;;2.28;1.38;;;18.70;67.40;;;;;;10329878;28;20500;-56
2021/10/27 06:00:10;;;;;;;1.50;1.17;;;18.60;67.50;;;;;;10329576;28;20034;-58
2021/10/27 06:05:11;;;;;;;1.60;1.10;;;18.60;67.60;;;;;;10369310;28;20393;-56
2021/10/27 06:10:18;;;;;;;1.92;1.60;;;18.70;67.40;;;;;;10370081;28;20025;-56
2021/10/27 06:15:21;;;;;;;2.25;1.50;;;18.70;67.40;;;;;;10369930;28;20038;-57
2021/10/27 06:20:22;;;;;;;1.83;1.20;;;18.70;67.40;;;;;;10342825;28;20027;-56
2021/10/27 06:25:24;;;;;;;2.08;1.40;;;18.60;67.60;;;;;;10349588;28;20440;-57
2021/10/27 06:30:32;;;;;;;4.20;1.40;;;18.50;67.70;;;;;;10342399;28;20037;-57
2021/10/27 06:35:39;;;;;;;0.95;0.90;;;18.60;67.90;;;;;;10334266;28;20033;-57
2021/10/27 06:51:00;;;;;;;2.50;1.50;;;18.60;67.60;;;;;;10337302;28;20038;-57
2021/10/27 06:56:00;;;;;;;1.33;0.95;;;18.60;67.90;;;;;;10336701;28;20073;-57
2021/10/27 07:01:02;;;;;;;3.00;1.10;;;18.50;68.20;;;;;;10342060;28;20466;-57
2021/10/27 07:16:41;;;;;;;2.30;1.43;;;18.60;67.90;;;;;;10374028;28;20539;-58
2021/10/27 07:21:41;;;;;;;1.40;1.10;;;18.60;67.90;;;;;;10335737;28;20107;-57
2021/10/27 07:26:43;;;;;;;1.50;1.00;;;18.50;68.00;;;;;;10355266;28;20058;-57
2021/10/27 07:31:44;;;;;;;3.47;1.13;;;18.60;68.10;;;;;;10334756;28;20026;-57
2021/10/27 07:39:54;;;;;;;1.58;1.35;;;18.60;67.80;;;;;;10334970;28;20483;-57
2021/10/27 07:42:11;;;;;;;1.95;1.02;;;18.60;67.80;;;;;;10334613;28;20058;-55
2021/10/27 07:47:13;;;;;;;2.38;1.90;;;18.60;68.00;;;;;;10334793;28;20402;-57
2021/10/27 07:52:15;;;;;;;1.98;1.20;;;18.50;68.20;;;;;;10333127;28;20030;-57
2021/10/27 07:57:17;;;;;;;1.52;1.10;;;18.40;68.40;;;;;;10334439;28;20133;-57
2021/10/27 08:02:18;;;;;;;1.85;1.17;;;18.30;68.60;;;;;;10349967;28;20072;-56
2021/10/27 08:07:18;;;;;;;2.42;1.40;;;18.30;68.90;;;;;;10356686;28;20033;-57
2021/10/27 08:12:20;;;;;;;1.65;1.15;;;18.20;68.90;;;;;;10373910;28;20426;-57
2021/10/27 08:17:21;;;;;;;1.30;1.10;;;18.30;69.00;;;;;;10367259;28;20405;-57
2021/10/27 08:22:22;;;;;;;1.92;1.20;;;18.30;68.90;;;;;;10333153;28;20065;-56
2021/10/27 08:27:23;;;;;;;2.15;1.17;;;18.30;68.90;;;;;;10351925;28;20172;-57
2021/10/27 08:37:28;;;;;;;1.17;0.80;;;18.20;69.20;;;;;;10332681;28;20446;-57
2021/10/27 08:42:29;;;;;;;2.15;1.13;;;18.20;69.40;;;;;;10331276;28;20046;-57
2021/10/27 08:47:32;;;;;;;1.92;1.20;;;18.20;69.40;;;;;;10330971;28;20081;-57
2021/10/27 08:52:33;;;;;;;2.10;1.27;;;18.30;69.70;;;;;;10332311;28;20037;-57
2021/10/27 08:57:35;;;;;;;2.28;1.38;;;18.30;69.10;;;;;;10332233;28;20116;-57
2021/10/27 09:35:29;;;;;;;2.33;1.10;;;18.30;69.10;;;;;;10318403;28;20038;-54
2021/10/27 10:04:02;;;;;;;2.22;1.02;;;18.20;69.90;;;;;;10337822;28;20402;-55
2021/10/27 10:07:36;;;;;;;2.10;1.25;;;18.20;70.10;;;;;;10378674;28;20141;-57
2021/10/27 10:12:46;;;;;;;1.65;1.10;;;18.20;70.10;;;;;;10379098;28;20497;-58
2021/10/27 10:17:49;;;;;;;2.35;1.52;;;18.20;70.10;;;;;;10368740;28;20030;-58
2021/10/27 10:22:51;;;;;;;1.55;1.20;;;18.10;70.20;;;;;;10337017;28;20434;-57
2021/10/27 10:27:53;;;;;;;1.95;1.42;;;18.10;70.30;;;;;;10356980;28;20081;-57
2021/10/27 10:33:05;;;;;;;1.55;1.30;;;18.10;70.40;;;;;;10336358;28;20034;-58
2021/10/27 10:38:31;;;;;;;2.35;1.50;;;18.10;70.40;;;;;;10337518;28;20391;-58
2021/10/27 11:42:51;;;;;;;2.00;1.23;;;17.90;70.80;;;;;;10335200;28;20054;-58
2021/10/27 11:47:58;;;;;;;1.58;1.00;;;17.90;70.90;;;;;;10333861;28;20030;-58
2021/10/27 11:53:02;;;;;;;1.60;1.10;;;17.90;71.00;;;;;;10334770;28;20034;-57
2021/10/27 11:58:04;;;;;;;1.52;1.17;;;17.90;71.00;;;;;;10334635;28;20041;-58
2021/10/27 12:14:15;;;;;;;2.45;1.73;;;17.90;71.10;;;;;;10375098;28;20779;-58
2021/10/27 12:19:31;;;;;;;2.28;1.30;;;17.80;70.90;;;;;;10352923;28;20042;-57
2021/10/27 12:24:38;;;;;;;1.58;0.90;;;17.90;70.80;;;;;;10339122;28;20080;-58
2021/10/27 12:29:39;;;;;;;1.52;1.20;;;18.00;70.70;;;;;;10346860;28;20088;-58
2021/10/27 12:34:50;;;;;;;1.85;1.30;;;18.00;70.60;;;;;;10331975;28;20026;-58
2021/10/27 12:39:51;;;;;;;1.98;1.25;;;18.00;70.60;;;;;;10332608;28;20050;-56
2021/10/27 12:44:54;;;;;;;2.42;1.48;;;17.90;70.70;;;;;;10331356;28;20031;-57
2021/10/27 12:50:19;;;;;;;2.30;1.52;;;18.00;70.80;;;;;;10332443;28;20034;-57
2021/10/27 12:55:31;;;;;;;2.20;1.42;;;18.00;70.80;;;;;;10332323;28;20026;-57
2021/10/27 13:01:13;;;;;;;2.05;1.25;;;18.00;70.50;;;;;;10333757;28;20057;-58
2021/10/27 13:06:29;;;;;;;3.95;1.48;;;18.10;70.30;;;;;;10349672;28;20064;-58
2021/10/27 13:22:09;;;;;;;2.75;1.70;;;18.10;70.40;;;;;;10332062;28;20061;-57
2021/10/27 13:32:31;;;;;;;3.33;1.88;;;18.00;70.60;;;;;;10330836;28;20478;-58
2021/10/27 13:37:33;;;;;;;2.67;1.60;;;18.00;70.60;;;;;;10331097;28;20034;-58
2021/10/27 13:42:42;;;;;;;2.35;1.50;;;18.00;70.70;;;;;;10331081;28;20053;-57
2021/10/27 13:48:10;;;;;;;2.42;1.85;;;18.00;70.80;;;;;;10330778;28;20033;-58
2021/10/27 14:14:09;;;;;;;2.28;1.20;;;18.00;71.10;;;;;;10370862;28;20104;-57
2021/10/27 14:19:25;;;;;;;2.13;1.40;;;17.90;71.10;;;;;;10349967;28;20043;-57
2021/10/27 15:28:18;;;;;;;1.55;1.30;;;18.20;70.40;;;;;;10356130;28;20026;-55
2021/10/27 15:54:35;;;;;;;2.87;1.53;;;18.00;70.60;;;;;;10352731;28;20053;-57
2021/10/27 15:59:37;;;;;;;1.75;1.35;;;18.00;70.70;;;;;;10342662;28;20277;-57
2021/10/27 16:04:39;;;;;;;2.95;1.50;;;18.10;70.70;;;;;;10368828;28;20459;-58
2021/10/27 16:09:44;;;;;;;1.70;1.33;;;18.10;70.60;;;;;;10374411;28;20046;-60
2021/10/27 16:14:46;;;;;;;1.65;1.27;;;18.10;70.30;;;;;;10374761;28;20164;-55
2021/10/27 16:19:47;;;;;;;1.65;1.42;;;18.20;70.10;;;;;;10348230;28;20106;-56
2021/10/27 16:24:48;;;;;;;2.42;1.52;;;18.20;70.10;;;;;;10341255;28;20355;-57
2021/10/27 16:29:48;;;;;;;2.28;1.70;;;18.20;70.10;;;;;;10345559;28;20045;-56
2021/10/27 16:34:49;;;;;;;1.98;1.30;;;18.10;70.00;;;;;;10346389;28;20030;-57
2021/10/27 16:39:50;;;;;;;1.50;1.20;;;18.10;70.20;;;;;;10332918;28;20068;-57
2021/10/27 16:44:52;;;;;;;1.90;1.48;;;18.00;70.40;;;;;;10332439;28;20037;-57
2021/10/27 16:49:53;;;;;;;1.80;1.40;;;18.00;70.50;;;;;;10332780;28;20455;-55
2021/10/27 16:54:56;;;;;;;3.20;1.60;;;18.00;70.60;;;;;;10333570;28;20030;-58
2021/10/27 16:59:56;;;;;;;2.58;1.60;;;18.00;70.50;;;;;;10331728;28;20110;-56
2021/10/27 17:04:57;;;;;;;1.92;1.30;;;18.20;70.10;;;;;;10368001;28;20089;-57
2021/10/27 17:09:59;;;;;;;3.45;1.70;;;18.30;69.80;;;;;;10371152;28;20077;-56
2021/10/27 17:15:00;;;;;;;2.50;1.63;;;18.30;69.80;;;;;;10369171;28;20493;-57
2021/10/27 17:20:02;;;;;;;2.63;1.48;;;18.20;69.80;;;;;;10343474;28;20110;-56
2021/10/27 17:25:03;;;;;;;1.65;1.13;;;18.20;70.00;;;;;;10340897;28;20037;-56
2021/10/27 17:30:09;;;;;;;1.63;1.30;;;18.20;70.10;;;;;;10340723;28;20034;-57
2021/10/27 17:35:17;;;;;;;2.03;1.23;;;18.10;70.20;;;;;;10330703;28;20035;-57
2021/10/27 17:40:37;;;;;;;1.88;1.30;;;18.10;70.30;;;;;;10330089;28;20044;-58
2021/10/27 17:45:40;;;;;;;2.37;1.67;;;18.00;70.40;;;;;;10330154;28;20049;-57
2021/10/27 18:01:09;;;;;;;1.52;1.13;;;18.20;69.70;;;;;;10335656;28;20038;-56
2021/10/27 18:06:13;;;;;;;2.40;1.52;;;18.20;69.90;;;;;;10370234;28;20065;-56
2021/10/27 18:11:17;;;;;;;2.55;1.55;;;18.20;70.10;;;;;;10370308;28;20033;-57
2021/10/27 18:16:43;;;;;;;1.77;1.23;;;18.20;70.10;;;;;;10374324;28;20026;-58
2021/10/27 18:21:51;;;;;;;1.98;1.20;;;18.20;69.80;;;;;;10350251;28;20383;-58
2021/10/27 18:27:20;;;;;;;2.30;1.50;;;18.30;69.60;;;;;;10357195;28;20109;-57
2021/10/27 18:38:02;;;;;;;1.63;1.33;;;18.20;69.80;;;;;;10336941;28;20527;-58
2021/10/27 18:43:12;;;;;;;2.10;1.27;;;18.20;70.00;;;;;;10336555;28;20046;-57
2021/10/27 18:48:14;;;;;;;2.35;1.38;;;18.20;69.70;;;;;;10336976;28;20026;-58
2021/10/27 18:53:25;;;;;;;1.85;1.27;;;18.30;69.50;;;;;;10336782;28;20058;-56
2021/10/27 18:58:35;;;;;;;2.13;1.65;;;18.30;69.60;;;;;;10337063;28;20038;-58
2021/10/27 19:03:54;;;;;;;1.70;1.30;;;18.30;69.60;;;;;;10362995;28;20025;-57
2021/10/27 19:14:27;;;;;;;1.83;1.20;;;18.20;69.70;;;;;;10376168;28;20046;-58
2021/10/27 19:19:28;;;;;;;2.15;1.17;;;18.20;69.80;;;;;;10352478;28;20038;-58
2021/10/27 19:29:40;;;;;;;1.83;1.10;;;18.10;70.00;;;;;;10349280;28;20045;-57
2021/10/27 20:54:05;;;;;;;2.13;1.40;;;17.70;71.10;;;;;;10372824;28;20063;-56
2021/10/27 21:14:51;;;;;;;1.98;1.27;;;17.60;71.20;;;;;;10371635;28;20088;-57
2021/10/27 21:19:52;;;;;;;2.00;1.33;;;17.60;71.30;;;;;;10326947;28;20153;-58
2021/10/27 21:24:55;;;;;;;2.03;1.63;;;17.60;71.30;;;;;;10338997;28;20524;-58
2021/10/27 21:30:21;;;;;;;1.70;1.60;;;17.60;71.30;;;;;;10341649;28;20463;-58
2021/10/27 21:46:00;;;;;;;2.00;1.70;;;17.50;71.30;;;;;;10329631;28;20513;-56
2021/10/27 21:51:01;;;;;;;2.70;1.40;;;17.50;71.30;;;;;;10328384;28;20109;-55
2021/10/27 21:56:01;;;;;;;1.95;1.52;;;17.50;71.40;;;;;;10328541;28;20038;-57
2021/10/27 22:01:02;;;;;;;2.40;1.42;;;17.50;71.40;;;;;;10334328;28;20049;-56
2021/10/27 22:06:03;;;;;;;2.10;1.38;;;17.50;71.40;;;;;;10370155;28;20038;-57
2021/10/27 22:11:05;;;;;;;1.63;1.45;;;17.50;71.60;;;;;;10370610;28;20527;-58
2021/10/27 22:16:06;;;;;;;2.22;1.73;;;17.50;71.60;;;;;;10368649;28;20036;-57
2021/10/27 22:21:07;;;;;;;2.05;1.42;;;17.50;72.00;;;;;;10332710;28;20026;-56
2021/10/27 22:26:08;;;;;;;2.67;1.80;;;17.40;72.10;;;;;;10330523;28;20116;-57
2021/10/27 22:31:09;;;;;;;2.20;1.60;;;17.40;71.70;;;;;;10329866;28;20093;-54
2021/10/27 22:36:10;;;;;;;1.67;1.40;;;17.40;71.30;;;;;;10328955;28;20026;-58
2021/10/27 22:41:11;;;;;;;2.22;1.48;;;17.50;71.30;;;;;;10327793;28;20501;-57
2021/10/27 22:46:15;;;;;;;2.25;1.70;;;17.50;71.10;;;;;;10329218;28;20059;-58
2021/10/27 22:51:16;;;;;;;2.10;1.30;;;17.50;71.10;;;;;;10327767;28;20034;-58
2021/10/27 22:56:17;;;;;;;1.70;1.27;;;17.50;71.10;;;;;;10328670;28;20534;-55
2021/10/27 23:01:25;;;;;;;2.35;1.50;;;17.50;71.10;;;;;;10338647;28;20065;-58
2021/10/27 23:43:52;;;;;;;2.08;1.48;;;17.50;71.20;;;;;;10333410;28;20082;-58
2021/10/27 23:48:52;;;;;;;1.73;1.33;;;17.50;71.30;;;;;;10333127;28;20386;-58
